aviador You're here:

KCSM Decoded Metar

CLINTON in OK, USA
Report Time2018-05-23 15:53:00
UTC Time2018-05-23 16:30:54
Flight Rules vfr VFR
Wind160° at 13 kt
W.Decomp.*RWY 17: 12.4 kt HW 4 kt LCW
W.Rank160° ranks 4
Current wind is above 160° avg. (12.7)
Visibility9999 m
Phenomena:N/A
Clouds:N/A
Expected CloudBase > 3,200 ft AGL from Temp-Dew spread
CeilingNone
Temp27°C (ISA +16)
Dew Point19°C (62% RH)
Heat Index28.2°C
AAT25.6°C
QNH1019 hPa
Density Alt3,845 ft
Elevation1,929 ft
Report Wrong Elevation
Raw Report
KCSM 231553Z 16013KT 10SM CLR 27/19 A3008 RMK AO2 SLP164
T02670189=

Extra information for KCSM:More info

Metar Taf Metar & Taf Last 4 Metars F.Rules Stats Wind Profile Meteogram Temp Stats Airport Information Weather charts Add Link Nearby VenuesMetar ALERT Operation Metar Decoded Social comments

AIRNAV info for KCSM